Time;durP1;ratioP1;P1;durP2;ratioP2;P2;SDS_P1;SDS_P2;PMS_P1;PMS_P2;Temp;Humidity;BMP_temperature;BMP_pressure;BME280_temperature;BME280_humidity;BME280_pressure;Samples;Min_cycle;Max_cycle;Signal;HPM_P1;HPM_P2
2022/01/02 00:02:24;;;;;;;;;0.00;0.00;;;;;-146.25;100.00;57879.81;5078319;28;45682;-77
2022/01/02 00:05:01;;;;;;;;;3.00;3.00;;;;;-146.25;100.00;57879.81;5078578;28;45544;-77
2022/01/02 00:07:30;;;;;;;;;4.00;3.00;;;;;-146.25;100.00;57879.81;5078108;28;45780;-77
2022/01/02 00:10:01;;;;;;;;;1.00;1.00;;;;;-146.25;100.00;57879.81;5078449;28;45487;-77
2022/01/02 00:12:31;;;;;;;;;0.00;0.00;;;;;-146.25;100.00;57879.81;5079048;28;45390;-77
2022/01/02 00:14:58;;;;;;;;;0.00;0.00;;;;;-146.25;100.00;57879.81;5077976;28;45470;-77
2022/01/02 00:17:24;;;;;;;;;0.00;0.00;;;;;-146.25;100.00;57879.81;5078012;28;45288;-77
2022/01/02 00:19:56;;;;;;;;;1.00;0.00;;;;;-146.25;100.00;57879.81;5078325;28;45235;-78
2022/01/02 00:22:34;;;;;;;;;0.00;0.00;;;;;-146.25;100.00;57879.81;5077649;28;45499;-77
2022/01/02 00:25:08;;;;;;;;;0.00;0.00;;;;;-146.25;100.00;57879.81;5077670;28;45381;-78
2022/01/02 00:27:35;;;;;;;;;0.00;0.00;;;;;-146.25;100.00;57879.81;5077768;28;45303;-77
2022/01/02 00:30:05;;;;;;;;;0.00;0.00;;;;;-146.25;100.00;57879.81;5077884;28;45446;-77
2022/01/02 00:32:33;;;;;;;;;0.00;0.00;;;;;-146.25;100.00;57879.81;5077495;28;45354;-76
2022/01/02 00:35:00;;;;;;;;;0.00;0.00;;;;;-146.25;100.00;57879.81;5077448;28;45311;-76
2022/01/02 00:37:26;;;;;;;;;0.00;0.00;;;;;-146.25;100.00;57879.81;5076401;28;45400;-77
2022/01/02 00:39:53;;;;;;;;;0.67;0.00;;;;;-146.25;100.00;57879.81;5077553;28;45571;-77
2022/01/02 00:42:32;;;;;;;;;0.00;0.00;;;;;-146.25;100.00;57879.81;5077567;28;45500;-77
2022/01/02 00:45:02;;;;;;;;;0.00;0.00;;;;;-146.25;100.00;57879.81;5077426;28;45405;-77
2022/01/02 00:47:32;;;;;;;;;0.00;0.00;;;;;-146.25;100.00;57879.81;5077776;28;45429;-77
2022/01/02 00:50:36;;;;;;;;;0.00;0.00;;;;;-146.25;100.00;57879.81;5081260;28;45338;-77
2022/01/02 00:53:02;;;;;;;;;0.00;0.00;;;;;-146.25;100.00;57879.81;5099350;28;46532;-76
2022/01/02 00:55:34;;;;;;;;;0.00;0.00;;;;;-146.25;100.00;57879.81;5080315;28;45301;-77
2022/01/02 00:58:02;;;;;;;;;0.00;0.00;;;;;-146.25;100.00;57879.81;5079142;28;45400;-77
2022/01/02 01:00:29;;;;;;;;;1.00;0.00;;;;;-146.25;100.00;57879.81;5078127;28;45414;-77
2022/01/02 01:02:57;;;;;;;;;0.00;0.00;;;;;-146.25;100.00;57879.81;5077271;28;46058;-77
2022/01/02 01:05:25;;;;;;;;;0.00;0.00;;;;;-146.25;100.00;57879.81;5077498;28;45434;-77
2022/01/02 01:07:54;;;;;;;;;2.00;2.00;;;;;-146.25;100.00;57879.81;5093306;27;45504;-77
2022/01/02 01:10:22;;;;;;;;;14.75;14.00;;;;;-146.25;100.00;57879.81;5077423;28;45442;-77
2022/01/02 01:12:53;;;;;;;;;4.00;3.00;;;;;-146.25;100.00;57879.81;5076783;28;46332;-78
2022/01/02 01:15:20;;;;;;;;;0.00;0.00;;;;;-146.25;100.00;57879.81;5077087;28;45356;-77
2022/01/02 01:17:47;;;;;;;;;0.00;0.00;;;;;-146.25;100.00;57879.81;5077114;28;45303;-77
2022/01/02 01:20:14;;;;;;;;;0.00;0.00;;;;;-146.25;100.00;57879.81;5077002;28;45378;-77
2022/01/02 01:22:41;;;;;;;;;0.00;0.00;;;;;-146.25;100.00;57879.81;5076896;28;45955;-77
2022/01/02 01:25:12;;;;;;;;;0.00;0.00;;;;;-146.25;100.00;57879.81;5076927;28;45526;-77
2022/01/02 01:27:38;;;;;;;;;0.00;0.00;;;;;-146.25;100.00;57879.81;5076910;28;45472;-77
2022/01/02 01:30:04;;;;;;;;;0.00;0.00;;;;;-146.25;100.00;57879.81;5077253;28;45573;-77
2022/01/02 01:32:30;;;;;;;;;0.00;0.00;;;;;-146.25;100.00;57879.81;5076754;28;45386;-77
2022/01/02 01:34:55;;;;;;;;;0.00;0.00;;;;;-146.25;100.00;57879.81;5076875;28;45867;-77
2022/01/02 01:37:21;;;;;;;;;0.00;0.00;;;;;-146.25;100.00;57879.81;5077351;28;45213;-77
2022/01/02 01:39:46;;;;;;;;;0.00;0.00;;;;;-146.25;100.00;57879.81;5077155;28;45291;-77
2022/01/02 01:42:12;;;;;;;;;0.00;0.00;;;;;-146.25;100.00;57879.81;5076777;28;45521;-77
2022/01/02 01:44:51;;;;;;;;;0.00;0.00;;;;;-146.25;100.00;57879.81;5076854;28;45802;-77
2022/01/02 01:47:17;;;;;;;;;1.00;0.00;;;;;-146.25;100.00;57879.81;5077116;28;45542;-78
2022/01/02 01:49:43;;;;;;;;;0.00;0.00;;;;;-146.25;100.00;57879.81;5076945;28;45499;-77
2022/01/02 01:52:09;;;;;;;;;0.00;0.00;;;;;-146.25;100.00;57879.81;5092358;27;45554;-77
2022/01/02 01:54:34;;;;;;;;;1.00;0.00;;;;;-146.25;100.00;57879.81;5076784;28;45313;-77
2022/01/02 01:57:02;;;;;;;;;0.00;0.00;;;;;-146.25;100.00;57879.81;5076970;28;45361;-78
2022/01/02 01:59:27;;;;;;;;;1.00;0.00;;;;;-146.25;100.00;57879.81;5076875;28;45334;-76
2022/01/02 02:01:53;;;;;;;;;0.00;0.00;;;;;-146.25;100.00;57879.81;5077142;28;45275;-77
2022/01/02 02:04:19;;;;;;;;;0.00;0.00;;;;;-146.25;100.00;57879.81;5078749;28;45331;-77
2022/01/02 02:06:45;;;;;;;;;0.00;0.00;;;;;-146.25;100.00;57879.81;5080035;28;45355;-77
2022/01/02 02:09:10;;;;;;;;;0.00;0.00;;;;;-146.25;100.00;57879.81;5080454;28;45623;-77
2022/01/02 02:11:38;;;;;;;;;0.00;0.00;;;;;-146.25;100.00;57879.81;5079790;28;46421;-77
2022/01/02 02:14:06;;;;;;;;;0.00;0.00;;;;;-146.25;100.00;57879.81;5080125;28;45349;-77
2022/01/02 02:16:36;;;;;;;;;0.00;0.00;;;;;-146.25;100.00;57879.81;5079839;28;45479;-77
2022/01/02 02:19:03;;;;;;;;;0.00;0.00;;;;;-146.25;100.00;57879.81;5080014;28;45495;-76
2022/01/02 02:21:34;;;;;;;;;0.00;0.00;;;;;-146.25;100.00;57879.81;5079608;28;45327;-75
2022/01/02 02:24:01;;;;;;;;;0.00;0.00;;;;;-146.25;100.00;57879.81;5079624;28;45292;-76
2022/01/02 02:26:27;;;;;;;;;5.33;5.00;;;;;-146.25;100.00;57879.81;5080038;28;45333;-77
2022/01/02 02:28:52;;;;;;;;;6.67;5.33;;;;;-146.25;100.00;57879.81;5079986;28;45484;-77
2022/01/02 02:31:18;;;;;;;;;26.50;21.50;;;;;-146.25;100.00;57879.81;5078251;28;45477;-77
2022/01/02 02:33:44;;;;;;;;;15.00;14.00;;;;;-146.25;100.00;57879.81;5079410;28;45321;-77
2022/01/02 02:36:09;;;;;;;;;1.00;1.00;;;;;-146.25;100.00;57879.81;5079607;28;45408;-77
2022/01/02 02:38:38;;;;;;;;;2.00;2.00;;;;;-146.25;100.00;57879.81;5079640;28;45512;-77
2022/01/02 02:41:04;;;;;;;;;0.00;0.00;;;;;-146.25;100.00;57879.81;5079293;28;46602;-75
2022/01/02 02:43:36;;;;;;;;;2.00;2.00;;;;;-146.25;100.00;57879.81;5079167;28;45466;-76
2022/01/02 02:49:03;;;;;;;;;2.67;1.33;;;;;-146.25;100.00;57879.81;5079412;28;45314;-77
2022/01/02 02:51:52;;;;;;;;;3.33;2.67;;;;;-146.25;100.00;57879.81;5079161;28;46414;-77
2022/01/02 02:54:20;;;;;;;;;0.00;0.00;;;;;-146.25;100.00;57879.81;5079004;28;45485;-77
2022/01/02 02:59:22;;;;;;;;;2.00;2.00;;;;;-146.25;100.00;57879.81;5079191;28;45423;-77
2022/01/02 03:01:48;;;;;;;;;4.00;3.67;;;;;-146.25;100.00;57879.81;5079020;28;45345;-77
2022/01/02 03:04:13;;;;;;;;;0.00;0.00;;;;;-146.25;100.00;57879.81;5078983;28;45517;-77
2022/01/02 03:06:39;;;;;;;;;0.00;0.00;;;;;-146.25;100.00;57879.81;5079353;28;45466;-77
2022/01/02 03:09:08;;;;;;;;;0.00;0.00;;;;;-146.25;100.00;57879.81;5079318;28;45591;-76
2022/01/02 03:11:35;;;;;;;;;0.33;0.33;;;;;-146.25;100.00;57879.81;5078813;28;46377;-77
2022/01/02 03:14:04;;;;;;;;;0.00;0.00;;;;;-146.25;100.00;57879.81;5078502;28;45484;-77
2022/01/02 03:16:29;;;;;;;;;0.00;0.00;;;;;-146.25;100.00;57879.81;5079451;28;45389;-77
2022/01/02 03:18:55;;;;;;;;;0.00;0.00;;;;;-146.25;100.00;57879.81;5079004;28;45286;-77
2022/01/02 03:21:21;;;;;;;;;0.00;0.00;;;;;-146.25;100.00;57879.81;5078723;28;46575;-77
2022/01/02 03:23:47;;;;;;;;;0.00;0.00;;;;;-146.25;100.00;57879.81;5078720;28;45480;-77
2022/01/02 03:26:13;;;;;;;;;0.00;0.00;;;;;-146.25;100.00;57879.81;5078729;28;45561;-77
2022/01/02 03:28:38;;;;;;;;;0.00;0.00;;;;;-146.25;100.00;57879.81;5079076;28;45362;-77
2022/01/02 03:31:04;;;;;;;;;0.00;0.00;;;;;-146.25;100.00;57879.81;5078522;28;45366;-77
2022/01/02 03:33:30;;;;;;;;;0.00;0.00;;;;;-146.25;100.00;57879.81;5078883;28;45308;-77
2022/01/02 03:35:55;;;;;;;;;0.33;0.00;;;;;-146.25;100.00;57879.81;5078797;28;45617;-76
2022/01/02 03:38:21;;;;;;;;;0.00;0.00;;;;;-146.25;100.00;57879.81;5078860;28;45519;-77
2022/01/02 03:40:47;;;;;;;;;0.00;0.00;;;;;-146.25;100.00;57879.81;5078193;28;46235;-78
2022/01/02 03:43:12;;;;;;;;;0.00;0.00;;;;;-146.25;100.00;57879.81;5077419;28;45429;-77
2022/01/02 03:45:38;;;;;;;;;0.00;0.00;;;;;-146.25;100.00;57879.81;5078669;28;45604;-77
2022/01/02 03:48:04;;;;;;;;;1.00;0.00;;;;;-146.25;100.00;57879.81;5078679;28;45407;-77
2022/01/02 03:50:30;;;;;;;;;0.00;0.00;;;;;-146.25;100.00;57879.81;5078557;28;45238;-77
2022/01/02 03:52:55;;;;;;;;;0.33;0.00;;;;;-146.25;100.00;57879.81;5078275;28;45316;-77
2022/01/02 03:55:21;;;;;;;;;0.00;0.00;;;;;-146.25;100.00;57879.81;5078371;28;45191;-77
2022/01/02 03:57:47;;;;;;;;;0.00;0.00;;;;;-146.25;100.00;57879.81;5078585;28;45207;-77
2022/01/02 04:00:14;;;;;;;;;0.00;0.00;;;;;-146.25;100.00;57879.81;5078025;28;45349;-77
2022/01/02 04:02:41;;;;;;;;;0.00;0.00;;;;;-146.25;100.00;57879.81;5078295;28;45232;-77
2022/01/02 04:05:12;;;;;;;;;0.00;0.00;;;;;-146.25;100.00;57879.81;5078314;28;45468;-77
2022/01/02 04:07:39;;;;;;;;;0.00;0.00;;;;;-146.25;100.00;57879.81;5078455;28;45306;-77
2022/01/02 04:10:07;;;;;;;;;0.00;0.00;;;;;-146.25;100.00;57879.81;5093300;28;45437;-77
2022/01/02 04:12:33;;;;;;;;;0.00;0.00;;;;;-146.25;100.00;57879.81;5087893;28;45283;-77
2022/01/02 04:15:00;;;;;;;;;0.00;0.00;;;;;-146.25;100.00;57879.81;5078696;28;45321;-77
2022/01/02 04:17:25;;;;;;;;;0.00;0.00;;;;;-146.25;100.00;57879.81;5078973;28;45517;-77
2022/01/02 04:19:51;;;;;;;;;0.00;0.00;;;;;-146.25;100.00;57879.81;5077987;28;45213;-77
2022/01/02 04:22:17;;;;;;;;;0.00;0.00;;;;;-146.25;100.00;57879.81;5078229;28;45250;-77
2022/01/02 04:24:43;;;;;;;;;0.00;0.00;;;;;-146.25;100.00;57879.81;5078019;28;45278;-77
2022/01/02 04:27:09;;;;;;;;;0.67;0.67;;;;;-146.25;100.00;57879.81;5078279;28;45484;-76
2022/01/02 04:29:34;;;;;;;;;0.00;0.00;;;;;-146.25;100.00;57879.81;5077850;28;45529;-77
2022/01/02 04:32:00;;;;;;;;;2.00;2.00;;;;;-146.25;100.00;57879.81;5077558;28;45457;-77
2022/01/02 04:34:26;;;;;;;;;2.00;2.00;;;;;-146.25;100.00;57879.81;5077775;28;45490;-77
2022/01/02 04:36:51;;;;;;;;;6.00;5.33;;;;;-146.25;100.00;57879.81;5077933;28;45375;-77
2022/01/02 04:39:17;;;;;;;;;6.33;4.33;;;;;-146.25;100.00;57879.81;5077598;28;45520;-77
2022/01/02 04:41:43;;;;;;;;;7.00;7.00;;;;;-146.25;100.00;57879.81;5077597;28;45349;-77
2022/01/02 04:44:08;;;;;;;;;11.25;9.25;;;;;-146.25;100.00;57879.81;5077542;28;45321;-76
2022/01/02 04:46:34;;;;;;;;;4.33;3.00;;;;;-146.25;100.00;57879.81;5078225;28;45397;-77
2022/01/02 04:49:00;;;;;;;;;6.33;5.67;;;;;-146.25;100.00;57879.81;5077497;28;46055;-77
2022/01/02 04:51:25;;;;;;;;;7.00;5.00;;;;;-146.25;100.00;57879.81;5077353;28;45437;-77
2022/01/02 04:53:51;;;;;;;;;8.00;6.00;;;;;-146.25;100.00;57879.81;5077672;28;45169;-77
2022/01/02 04:56:16;;;;;;;;;7.67;6.67;;;;;-146.25;100.00;57879.81;5077647;28;45335;-77
2022/01/02 04:58:43;;;;;;;;;1.67;1.67;;;;;-146.25;100.00;57879.81;5077358;28;45761;-77
2022/01/02 05:01:11;;;;;;;;;6.00;5.00;;;;;-146.25;100.00;57879.81;5077438;28;45477;-76
2022/01/02 05:03:44;;;;;;;;;9.00;8.33;;;;;-146.25;100.00;57879.81;5077609;28;45445;-77
2022/01/02 05:06:10;;;;;;;;;5.00;5.00;;;;;-146.25;100.00;57879.81;5077686;28;45344;-77
2022/01/02 05:08:36;;;;;;;;;4.33;3.33;;;;;-146.25;100.00;57879.81;5077368;28;45321;-77
2022/01/02 05:11:02;;;;;;;;;4.33;4.00;;;;;-146.25;100.00;57879.81;5077215;28;45564;-77
2022/01/02 05:13:28;;;;;;;;;4.00;4.00;;;;;-146.25;100.00;57879.81;5077204;28;45407;-77
2022/01/02 05:15:53;;;;;;;;;0.00;0.00;;;;;-146.25;100.00;57879.81;5077394;28;45463;-77
2022/01/02 05:18:19;;;;;;;;;3.00;0.00;;;;;-146.25;100.00;57879.81;5077067;28;45457;-77
2022/01/02 05:20:46;;;;;;;;;1.67;0.67;;;;;-146.25;100.00;57879.81;5076694;28;45547;-77
2022/01/02 05:23:15;;;;;;;;;0.00;0.00;;;;;-146.25;100.00;57879.81;5077057;28;45433;-77
2022/01/02 05:25:42;;;;;;;;;0.00;0.00;;;;;-146.25;100.00;57879.81;5077143;28;45511;-77
2022/01/02 05:28:10;;;;;;;;;0.00;0.00;;;;;-146.25;100.00;57879.81;5077162;28;46121;-77
2022/01/02 05:30:36;;;;;;;;;0.00;0.00;;;;;-146.25;100.00;57879.81;5077121;28;45503;-77
2022/01/02 05:33:02;;;;;;;;;0.00;0.00;;;;;-146.25;100.00;57879.81;5076805;28;45450;-76
2022/01/02 05:35:29;;;;;;;;;0.00;0.00;;;;;-146.25;100.00;57879.81;5075795;28;45484;-77
2022/01/02 05:37:55;;;;;;;;;0.00;0.00;;;;;-146.25;100.00;57879.81;5080062;28;45355;-77
2022/01/02 05:40:21;;;;;;;;;0.00;0.00;;;;;-146.25;100.00;57879.81;5080134;28;45524;-77
2022/01/02 05:42:47;;;;;;;;;0.33;0.00;;;;;-146.25;100.00;57879.81;5080524;28;45498;-77
2022/01/02 05:45:12;;;;;;;;;0.33;0.00;;;;;-146.25;100.00;57879.81;5096261;27;45338;-77
2022/01/02 05:47:38;;;;;;;;;0.00;0.00;;;;;-146.25;100.00;57879.81;5080584;28;45355;-77
2022/01/02 05:50:06;;;;;;;;;0.67;0.67;;;;;-146.25;100.00;57879.81;5080329;27;45543;-77
2022/01/02 05:52:31;;;;;;;;;0.00;0.00;;;;;-146.25;100.00;57879.81;5080456;28;45290;-77
2022/01/02 05:54:57;;;;;;;;;0.00;0.00;;;;;-146.25;100.00;57879.81;5080400;28;45432;-77
2022/01/02 05:57:23;;;;;;;;;0.00;0.00;;;;;-146.25;100.00;57879.81;5080160;28;46487;-77
2022/01/02 05:59:49;;;;;;;;;0.00;0.00;;;;;-146.25;100.00;57879.81;5080058;28;45220;-77
2022/01/02 06:02:14;;;;;;;;;0.00;0.00;;;;;-146.25;100.00;57879.81;5080198;28;45557;-77
2022/01/02 06:04:40;;;;;;;;;0.00;0.00;;;;;-146.25;100.00;57879.81;5080776;28;45297;-77
2022/01/02 06:07:06;;;;;;;;;0.00;0.00;;;;;-146.25;100.00;57879.81;5080107;28;45289;-77
2022/01/02 06:09:32;;;;;;;;;0.00;0.00;;;;;-146.25;100.00;57879.81;5080060;28;45346;-77
2022/01/02 06:11:57;;;;;;;;;0.00;0.00;;;;;-146.25;100.00;57879.81;5095908;27;45580;-77
2022/01/02 06:14:23;;;;;;;;;0.00;0.00;;;;;-146.25;100.00;57879.81;5080376;28;45454;-77
2022/01/02 06:16:48;;;;;;;;;0.33;0.33;;;;;-146.25;100.00;57879.81;5095592;27;45387;-77
2022/01/02 06:19:14;;;;;;;;;0.00;0.00;;;;;-146.25;100.00;57879.81;5079797;28;45411;-77
2022/01/02 06:21:39;;;;;;;;;0.00;0.00;;;;;-146.25;100.00;57879.81;5080138;28;45377;-77
2022/01/02 06:24:05;;;;;;;;;0.00;0.00;;;;;-146.25;100.00;57879.81;5079990;28;45457;-77
2022/01/02 06:26:30;;;;;;;;;0.00;0.00;;;;;-146.25;100.00;57879.81;5079763;28;45516;-77
2022/01/02 06:28:56;;;;;;;;;0.33;0.00;;;;;-146.25;100.00;57879.81;5079668;28;45310;-77
2022/01/02 06:31:21;;;;;;;;;0.00;0.00;;;;;-146.25;100.00;57879.81;5079871;28;45624;-78
2022/01/02 06:33:47;;;;;;;;;0.00;0.00;;;;;-146.25;100.00;57879.81;5079795;28;45357;-77
2022/01/02 06:36:13;;;;;;;;;0.00;0.00;;;;;-146.25;100.00;57879.81;5080124;28;46512;-77
2022/01/02 06:38:38;;;;;;;;;0.00;0.00;;;;;-146.25;100.00;57879.81;5079963;28;45370;-78
2022/01/02 06:41:04;;;;;;;;;0.00;0.00;;;;;-146.25;100.00;57879.81;5079534;28;45429;-77
2022/01/02 06:43:32;;;;;;;;;2.67;2.67;;;;;-146.25;100.00;57879.81;5079625;28;45479;-78
2022/01/02 06:45:57;;;;;;;;;0.00;0.00;;;;;-146.25;100.00;57879.81;5079254;28;45424;-77
2022/01/02 06:48:23;;;;;;;;;0.00;0.00;;;;;-146.25;100.00;57879.81;5078119;28;45422;-77
2022/01/02 06:50:48;;;;;;;;;0.33;0.33;;;;;-146.25;100.00;57879.81;5079564;28;45698;-78
2022/01/02 06:53:14;;;;;;;;;1.67;1.67;;;;;-146.25;100.00;57879.81;5079711;28;45426;-77
2022/01/02 06:55:39;;;;;;;;;2.33;1.67;;;;;-146.25;100.00;57879.81;5079506;28;46150;-78
2022/01/02 06:58:08;;;;;;;;;3.33;2.33;;;;;-146.25;100.00;57879.81;5079305;28;45375;-77
2022/01/02 07:00:34;;;;;;;;;2.67;1.67;;;;;-146.25;100.00;57879.81;5079151;28;45528;-76
2022/01/02 07:02:59;;;;;;;;;3.33;3.33;;;;;-146.25;100.00;57879.81;5095183;27;45536;-77
2022/01/02 07:05:25;;;;;;;;;7.33;5.00;;;;;-146.25;100.00;57879.81;5078885;28;45989;-77
2022/01/02 07:07:52;;;;;;;;;7.33;5.33;;;;;-146.25;100.00;57879.81;5078984;28;45236;-76
2022/01/02 07:10:18;;;;;;;;;3.75;2.50;;;;;-146.25;100.00;57879.81;5079162;28;45309;-76
2022/01/02 07:12:44;;;;;;;;;7.33;7.33;;;;;-146.25;100.00;57879.81;5079496;28;45454;-76
2022/01/02 07:15:10;;;;;;;;;7.00;7.00;;;;;-146.25;100.00;57879.81;5078981;28;46011;-76
2022/01/02 07:17:36;;;;;;;;;8.67;8.67;;;;;-146.25;100.00;57879.81;5078819;28;45362;-77
2022/01/02 07:20:05;;;;;;;;;7.00;7.00;;;;;-146.25;100.00;57879.81;5078692;28;45430;-76
2022/01/02 07:22:30;;;;;;;;;8.00;8.00;;;;;-146.25;100.00;57879.81;5079212;28;45355;-77
2022/01/02 07:24:56;;;;;;;;;8.50;8.50;;;;;-146.25;100.00;57879.81;5078378;28;46045;-76
2022/01/02 07:27:22;;;;;;;;;11.25;9.00;;;;;-146.25;100.00;57879.81;5084404;28;45292;-77
2022/01/02 07:29:48;;;;;;;;;10.25;8.75;;;;;-146.25;100.00;57879.81;5095686;28;44807;-76
2022/01/02 07:32:18;;;;;;;;;9.00;8.00;;;;;-146.25;100.00;57879.81;5084635;28;45563;-77
2022/01/02 07:34:44;;;;;;;;;12.00;9.33;;;;;-146.25;100.00;57879.81;5081890;28;46254;-77
2022/01/02 07:37:10;;;;;;;;;10.00;10.00;;;;;-146.25;100.00;57879.81;5080812;28;45366;-76
2022/01/02 07:39:36;;;;;;;;;11.00;9.00;;;;;-146.25;100.00;57879.81;5079131;28;45454;-76
2022/01/02 07:42:01;;;;;;;;;9.00;9.00;;;;;-146.25;100.00;57879.81;5080029;28;45422;-77
2022/01/02 07:44:27;;;;;;;;;10.00;9.67;;;;;-146.25;100.00;57879.81;5078864;28;45290;-77
2022/01/02 07:46:53;;;;;;;;;11.25;9.25;;;;;-146.25;100.00;57879.81;5079361;28;45557;-76
2022/01/02 07:49:18;;;;;;;;;9.00;9.00;;;;;-146.25;100.00;57879.81;5094549;27;45294;-76
2022/01/02 07:51:44;;;;;;;;;10.67;8.00;;;;;-146.25;100.00;57879.81;5079076;28;45473;-77
2022/01/02 07:54:12;;;;;;;;;8.33;8.00;;;;;-146.25;100.00;57879.81;5078986;28;46165;-76
2022/01/02 07:56:37;;;;;;;;;8.00;8.00;;;;;-146.25;100.00;57879.81;5079071;28;45333;-76
2022/01/02 07:59:03;;;;;;;;;8.67;8.00;;;;;-146.25;100.00;57879.81;5078541;28;45316;-76
2022/01/02 08:01:28;;;;;;;;;11.00;10.00;;;;;-146.25;100.00;57879.81;5078604;28;45402;-77
2022/01/02 08:03:55;;;;;;;;;9.00;8.00;;;;;-146.25;100.00;57879.81;5079251;28;46031;-76
2022/01/02 08:06:20;;;;;;;;;9.00;8.00;;;;;-146.25;100.00;57879.81;5094978;27;45402;-76
2022/01/02 08:08:46;;;;;;;;;10.00;7.00;;;;;-146.25;100.00;57879.81;5078555;28;45293;-76
2022/01/02 08:11:15;;;;;;;;;10.75;8.75;;;;;-146.25;100.00;57879.81;5078429;28;45517;-76
2022/01/02 08:13:41;;;;;;;;;11.25;9.75;;;;;-146.25;100.00;57879.81;5078412;28;45448;-77
2022/01/02 08:16:07;;;;;;;;;6.33;5.33;;;;;-146.25;100.00;57879.81;5077750;28;45406;-77
2022/01/02 08:18:32;;;;;;;;;8.67;7.67;;;;;-146.25;100.00;57879.81;5079324;28;45428;-76
2022/01/02 08:20:58;;;;;;;;;8.00;8.00;;;;;-146.25;100.00;57879.81;5081205;28;45489;-76
2022/01/02 08:23:24;;;;;;;;;7.00;6.00;;;;;-146.25;100.00;57879.81;5081218;28;46166;-76
2022/01/02 08:25:49;;;;;;;;;6.00;6.00;;;;;-146.25;100.00;57879.81;5079580;28;45218;-76
2022/01/02 08:28:15;;;;;;;;;7.00;6.00;;;;;-146.25;100.00;57879.81;5079542;28;45322;-77
2022/01/02 08:30:43;;;;;;;;;7.33;6.67;;;;;-146.25;100.00;57879.81;5078472;27;45370;-76
2022/01/02 08:33:10;;;;;;;;;7.33;6.33;;;;;-146.25;100.00;57879.81;5093317;27;47906;-77
2022/01/02 08:35:36;;;;;;;;;6.33;5.67;;;;;-146.25;100.00;57879.81;5077581;28;45231;-76
2022/01/02 08:38:02;;;;;;;;;11.33;10.33;;;;;-146.25;100.00;57879.81;5077714;28;45208;-77
2022/01/02 08:40:28;;;;;;;;;8.00;8.00;;;;;-146.25;100.00;57879.81;5077978;28;45278;-76
2022/01/02 08:42:53;;;;;;;;;7.33;7.33;;;;;-146.25;100.00;57879.81;5077497;28;46120;-76
2022/01/02 08:45:19;;;;;;;;;3.67;3.00;;;;;-146.25;100.00;57879.81;5077853;28;45537;-76
2022/01/02 08:47:45;;;;;;;;;9.33;6.67;;;;;-146.25;100.00;57879.81;5077467;28;46210;-76
2022/01/02 08:50:10;;;;;;;;;10.00;9.00;;;;;-146.25;100.00;57879.81;5078003;28;45902;-76
2022/01/02 08:52:36;;;;;;;;;7.33;7.00;;;;;-146.25;100.00;57879.81;5077231;28;46029;-77
2022/01/02 08:55:02;;;;;;;;;5.00;5.00;;;;;-146.25;100.00;57879.81;5077288;28;45422;-77
2022/01/02 08:57:28;;;;;;;;;12.00;6.00;;;;;-146.25;100.00;57879.81;5077515;28;45497;-76
2022/01/02 08:59:53;;;;;;;;;4.00;4.00;;;;;-146.25;100.00;57879.81;5077382;28;45450;-76
2022/01/02 09:02:19;;;;;;;;;9.33;7.00;;;;;-146.25;100.00;57879.81;5077381;28;45595;-76
2022/01/02 09:04:44;;;;;;;;;7.00;6.00;;;;;-146.25;100.00;57879.81;5077436;28;45270;-76
2022/01/02 09:07:10;;;;;;;;;5.67;5.00;;;;;-146.25;100.00;57879.81;5077500;28;45583;-76
2022/01/02 09:09:35;;;;;;;;;6.33;4.67;;;;;-146.25;100.00;57879.81;5077514;28;45540;-76
2022/01/02 09:12:01;;;;;;;;;2.00;2.00;;;;;-146.25;100.00;57879.81;5078884;28;45432;-76
2022/01/02 09:14:27;;;;;;;;;6.00;5.67;;;;;-146.25;100.00;57879.81;5080855;28;45505;-77
2022/01/02 09:16:52;;;;;;;;;6.33;5.33;;;;;-146.25;100.00;57879.81;5080952;28;45452;-75
2022/01/02 09:19:18;;;;;;;;;6.00;5.67;;;;;-146.25;100.00;57879.81;5081280;28;45355;-77
2022/01/02 09:21:43;;;;;;;;;6.00;5.00;;;;;-146.25;100.00;57879.81;5081987;28;45339;-76
2022/01/02 09:24:09;;;;;;;;;7.33;5.00;;;;;-146.25;100.00;57879.81;5080670;28;45488;-77
2022/01/02 09:26:35;;;;;;;;;6.00;6.00;;;;;-146.25;100.00;57879.81;5080802;28;45234;-76
2022/01/02 09:29:00;;;;;;;;;3.67;3.33;;;;;-146.25;100.00;57879.81;5080963;28;45441;-77
2022/01/02 09:31:27;;;;;;;;;29.00;26.75;;;;;-146.25;100.00;57879.81;5080412;28;45512;-77
2022/01/02 09:33:52;;;;;;;;;26.25;24.50;;;;;-146.25;100.00;57879.81;5080566;28;45357;-76
2022/01/02 09:36:18;;;;;;;;;47.75;41.00;;;;;-146.25;100.00;57879.81;5080274;28;45425;-76
2022/01/02 09:38:44;;;;;;;;;9.67;7.33;;;;;-146.25;100.00;57879.81;5081000;28;45919;-76
2022/01/02 09:41:09;;;;;;;;;9.67;9.67;;;;;-146.25;100.00;57879.81;5080123;28;45460;-76
2022/01/02 09:43:35;;;;;;;;;9.00;8.67;;;;;-146.25;100.00;57879.81;5080114;28;45459;-77
2022/01/02 09:46:03;;;;;;;;;9.00;8.33;;;;;-146.25;100.00;57879.81;5080559;28;45314;-77
2022/01/02 09:48:30;;;;;;;;;5.00;5.00;;;;;-146.25;100.00;57879.81;5080745;28;45971;-77
2022/01/02 09:50:57;;;;;;;;;6.00;5.33;;;;;-146.25;100.00;57879.81;5080690;28;45497;-77
2022/01/02 09:53:23;;;;;;;;;11.00;10.33;;;;;-146.25;100.00;57879.81;5082306;28;45345;-77
2022/01/02 09:55:51;;;;;;;;;4.00;4.00;;;;;-146.25;100.00;57879.81;5082205;28;45427;-76
2022/01/02 09:58:17;;;;;;;;;8.67;7.00;;;;;-146.25;100.00;57879.81;5083072;28;45264;-76
2022/01/02 10:00:46;;;;;;;;;7.00;7.00;;;;;-146.25;100.00;57879.81;5085626;28;45627;-77
2022/01/02 10:03:12;;;;;;;;;13.33;12.67;;;;;-146.25;100.00;57879.81;5084168;28;45393;-77
2022/01/02 10:05:56;;;;;;;;;8.67;8.67;;;;;-146.25;100.00;57879.81;5080912;28;45248;-77
2022/01/02 10:08:40;;;;;;;;;6.00;5.00;;;;;-146.25;100.00;57879.81;5080352;28;45360;-77
2022/01/02 10:13:52;;;;;;;;;6.67;5.67;;;;;-146.25;100.00;57879.81;5079684;28;45429;-77
2022/01/02 10:16:26;;;;;;;;;7.33;7.00;;;;;-146.25;100.00;57879.81;5082190;28;45341;-77
2022/01/02 10:18:55;;;;;;;;;6.67;6.67;;;;;-146.25;100.00;57879.81;5080307;28;45538;-77
2022/01/02 10:21:33;;;;;;;;;11.00;10.33;;;;;-146.25;100.00;57879.81;5079988;28;45848;-78
2022/01/02 10:24:16;;;;;;;;;8.00;8.00;;;;;-146.25;100.00;57879.81;5079808;28;45224;-77
2022/01/02 10:27:09;;;;;;;;;9.33;8.67;;;;;-146.25;100.00;57879.81;5079684;28;45474;-76
2022/01/02 10:29:38;;;;;;;;;7.67;7.67;;;;;-146.25;100.00;57879.81;5079751;28;45272;-76
2022/01/02 10:32:27;;;;;;;;;12.00;12.00;;;;;-146.25;100.00;57879.81;5079173;28;45533;-78
2022/01/02 10:35:16;;;;;;;;;6.67;6.67;;;;;-146.25;100.00;57879.81;5079608;28;45469;-76
2022/01/02 10:37:51;;;;;;;;;9.33;8.00;;;;;-146.25;100.00;57879.81;5079383;28;45632;-77
2022/01/02 10:40:24;;;;;;;;;7.00;6.00;;;;;-146.25;100.00;57879.81;5079370;28;45439;-76
2022/01/02 10:42:50;;;;;;;;;6.67;5.67;;;;;-146.25;100.00;57879.81;5079338;28;46059;-77
2022/01/02 10:45:33;;;;;;;;;6.00;5.33;;;;;-146.25;100.00;57879.81;5079744;28;45483;-77
2022/01/02 10:47:58;;;;;;;;;6.00;4.33;;;;;-146.25;100.00;57879.81;5091102;28;45241;-76
2022/01/02 10:50:24;;;;;;;;;7.67;7.67;;;;;-146.25;100.00;57879.81;5090300;28;45277;-77
2022/01/02 10:52:50;;;;;;;;;9.33;9.00;;;;;-146.25;100.00;57879.81;5081343;28;46184;-77
2022/01/02 10:55:24;;;;;;;;;12.00;11.67;;;;;-146.25;100.00;57879.81;5080199;28;45477;-77
2022/01/02 10:57:52;;;;;;;;;4.67;4.67;;;;;-146.25;100.00;57879.81;5079864;28;45314;-77
2022/01/02 11:00:23;;;;;;;;;4.33;3.00;;;;;-146.25;100.00;57879.81;5079270;28;45319;-78
2022/01/02 11:02:49;;;;;;;;;5.00;5.00;;;;;-146.25;100.00;57879.81;5079164;28;45483;-77
2022/01/02 11:05:17;;;;;;;;;8.00;7.00;;;;;-146.25;100.00;57879.81;5077514;28;45373;-78
2022/01/02 11:07:49;;;;;;;;;4.00;4.00;;;;;-146.25;100.00;57879.81;5079483;28;45516;-78
2022/01/02 11:10:18;;;;;;;;;8.33;6.67;;;;;-146.25;100.00;57879.81;5079156;28;45433;-78
2022/01/02 11:12:45;;;;;;;;;7.00;6.00;;;;;-146.25;100.00;57879.81;5080532;28;45231;-76
2022/01/02 11:15:15;;;;;;;;;11.00;8.00;;;;;-146.25;100.00;57879.81;5079005;28;45439;-78
2022/01/02 11:17:43;;;;;;;;;8.33;6.00;;;;;-146.25;100.00;57879.81;5081880;28;45318;-78